createdAt,value
2023-05-08T00:00:42.208Z,97033.41
2023-05-08T00:01:47.631Z,97028.00
2023-05-08T00:03:11.315Z,97034.47
2023-05-08T00:04:34.733Z,97031.78
2023-05-08T00:05:58.089Z,97028.09
2023-05-08T00:07:21.337Z,97027.28
2023-05-08T00:08:44.204Z,97031.34
2023-05-08T00:10:09.792Z,97022.22
2023-05-08T00:11:32.214Z,97025.22
2023-05-08T00:12:55.622Z,97023.88
2023-05-08T00:14:18.919Z,97019.84
2023-05-08T00:15:41.195Z,97018.50
2023-05-08T00:17:04.555Z,97018.81
2023-05-08T00:18:29.126Z,97019.59
2023-05-08T00:19:52.112Z,97017.75
2023-05-08T00:21:15.397Z,97016.94
2023-05-08T00:22:38.864Z,97019.63
2023-05-08T00:24:02.051Z,97016.94
2023-05-08T00:25:24.364Z,97015.56
2023-05-08T00:26:47.690Z,97018.25
2023-05-08T00:28:10.081Z,97015.00
2023-05-08T00:29:33.560Z,97011.50
2023-05-08T00:30:56.416Z,97017.19
2023-05-08T00:32:19.765Z,97013.72
2023-05-08T00:33:43.489Z,97010.50
2023-05-08T00:35:06.960Z,97002.97
2023-05-08T00:36:30.683Z,97005.16
2023-05-08T00:37:53.017Z,97008.91
2023-05-08T00:39:16.567Z,97001.41
2023-05-08T00:40:40.039Z,97004.34
2023-05-08T00:42:02.411Z,97012.44
2023-05-08T00:43:28.136Z,97016.50
2023-05-08T00:44:51.361Z,97018.09
2023-05-08T00:46:15.226Z,97013.28
2023-05-08T00:47:37.778Z,97016.25
2023-05-08T00:49:02.753Z,97018.69
2023-05-08T00:50:25.744Z,97015.47
2023-05-08T00:51:53.426Z,97013.88
2023-05-08T00:53:16.563Z,97016.00
2023-05-08T00:54:40.915Z,97012.25
2023-05-08T00:56:04.725Z,97014.94
2023-05-08T00:57:27.197Z,97016.00
2023-05-08T00:58:51.337Z,97014.94
2023-05-08T01:00:17.607Z,97016.00
2023-05-08T01:01:41.650Z,97021.69
2023-05-08T01:03:06.244Z,97016.31
2023-05-08T01:04:33.053Z,97020.09
2023-05-08T01:05:55.277Z,97022.28
2023-05-08T01:07:19.367Z,97016.13
2023-05-08T01:08:44.457Z,97015.06
2023-05-08T01:10:08.407Z,97021.50
2023-05-08T01:11:38.557Z,97018.81
2023-05-08T01:13:16.565Z,97018.56
2023-05-08T01:14:52.578Z,97015.09
2023-05-08T01:16:17.915Z,97015.09
2023-05-08T01:17:53.001Z,97015.91
2023-05-08T01:19:41.223Z,97011.34
2023-05-08T01:21:10.616Z,97011.06
2023-05-08T01:23:01.871Z,97012.16
2023-05-08T01:24:32.697Z,97015.13
2023-05-08T01:26:05.839Z,97014.03
2023-05-08T01:27:33.635Z,97015.41
2023-05-08T01:29:15.478Z,97016.75
2023-05-08T01:30:42.905Z,97020.25
2023-05-08T01:32:21.462Z,97021.88
2023-05-08T01:33:30.581Z,97019.47
2023-05-08T01:34:37.043Z,97018.13
2023-05-08T01:36:08.497Z,97022.16
2023-05-08T01:37:16.043Z,97014.59
2023-05-08T01:38:49.029Z,97025.91
2023-05-08T01:39:58.839Z,97020.53
2023-05-08T01:41:28.415Z,97029.69
2023-05-08T01:42:39.536Z,97023.78
2023-05-08T01:44:13.442Z,97018.91
2023-05-08T01:45:22.743Z,97014.09
2023-05-08T01:46:29.586Z,97017.03
2023-05-08T01:48:01.235Z,97019.19
2023-05-08T01:49:09.362Z,97011.91
2023-05-08T01:50:36.292Z,97023.22
2023-05-08T01:51:46.001Z,97018.91
2023-05-08T01:53:14.801Z,97022.72
2023-05-08T01:54:22.724Z,97020.53
2023-05-08T01:55:30.047Z,97012.47
2023-05-08T01:56:56.546Z,97015.72
2023-05-08T01:57:59.915Z,97017.31
2023-05-08T01:59:24.866Z,97010.88
2023-05-08T02:00:28.674Z,97017.06
2023-05-08T02:01:34.653Z,97012.50
2023-05-08T02:02:44.828Z,97017.31
2023-05-08T02:03:50.583Z,97017.88
2023-05-08T02:04:55.993Z,97012.50
2023-05-08T02:06:01.936Z,97018.69
2023-05-08T02:07:05.893Z,97008.19
2023-05-08T02:08:12.903Z,97007.13
2023-05-08T02:09:16.946Z,97001.75
2023-05-08T02:10:22.283Z,97006.31
2023-05-08T02:11:26.204Z,97001.75
2023-05-08T02:12:30.948Z,97001.75
2023-05-08T02:13:35.894Z,97000.63
2023-05-08T02:14:41.348Z,97006.56
2023-05-08T02:15:44.072Z,97000.38
2023-05-08T02:16:49.892Z,97001.19
2023-05-08T02:17:55.606Z,97000.63
2023-05-08T02:19:03.164Z,97005.22
2023-05-08T02:20:07.830Z,97001.19
2023-05-08T02:21:13.923Z,96994.72
2023-05-08T02:22:18.942Z,96993.94
2023-05-08T02:23:24.782Z,97004.41
2023-05-08T02:24:28.072Z,97004.41
2023-05-08T02:25:32.399Z,96998.22
2023-05-08T02:26:39.783Z,97007.63
2023-05-08T02:27:45.735Z,97003.63
2023-05-08T02:28:49.904Z,97004.44
2023-05-08T02:29:55.788Z,97001.72
2023-05-08T02:30:59.501Z,96999.59
2023-05-08T02:32:05.084Z,97002.28
2023-05-08T02:33:10.770Z,97005.00
2023-05-08T02:34:16.822Z,96999.88
2023-05-08T02:35:20.642Z,96995.03
2023-05-08T02:36:25.033Z,96995.59
2023-05-08T02:37:28.706Z,96994.22
2023-05-08T02:38:33.917Z,96992.63
2023-05-08T02:39:38.465Z,96988.88
2023-05-08T02:40:47.484Z,96991.56
2023-05-08T02:41:50.324Z,96983.50
2023-05-08T02:42:53.926Z,96988.31
2023-05-08T02:43:57.155Z,96982.44
2023-05-08T02:45:00.702Z,96978.63
2023-05-08T02:46:11.079Z,96981.34
2023-05-08T02:47:22.974Z,96984.53
2023-05-08T02:48:33.874Z,96980.50
2023-05-08T02:49:47.632Z,96985.63
2023-05-08T02:50:59.444Z,96981.31
2023-05-08T02:52:09.286Z,96964.38
2023-05-08T02:53:20.900Z,96964.09
2023-05-08T02:54:33.260Z,96961.94
2023-05-08T02:55:42.992Z,96957.09
2023-05-08T02:56:57.130Z,96957.38
2023-05-08T02:58:08.317Z,96960.84
2023-05-08T02:59:18.186Z,96957.91
2023-05-08T03:00:27.930Z,96955.50
2023-05-08T03:01:45.710Z,96956.03
2023-05-08T03:02:59.564Z,96963.03
2023-05-08T03:04:11.419Z,96966.03
2023-05-08T03:05:24.702Z,96955.25
2023-05-08T03:06:34.209Z,96956.59
2023-05-08T03:07:41.940Z,96958.22
2023-05-08T03:08:47.368Z,96955.78
2023-05-08T03:09:56.655Z,96951.75
2023-05-08T03:11:03.161Z,96956.59
2023-05-08T03:12:13.468Z,96958.00
2023-05-08T03:13:19.304Z,96954.78
2023-05-08T03:14:26.604Z,96955.03
2023-05-08T03:15:34.722Z,96954.53
2023-05-08T03:16:39.510Z,96949.16
2023-05-08T03:17:45.259Z,96947.00
2023-05-08T03:18:53.570Z,96953.19
2023-05-08T03:20:00.787Z,96949.69
2023-05-08T03:21:08.579Z,96958.00
2023-05-08T03:22:11.763Z,96952.34
2023-05-08T03:23:18.181Z,96955.28
2023-05-08T03:24:24.920Z,96955.81
2023-05-08T03:25:29.913Z,96950.69
2023-05-08T03:26:33.001Z,96949.63
2023-05-08T03:27:38.081Z,96950.16
2023-05-08T03:28:40.820Z,96947.97
2023-05-08T03:29:47.429Z,96952.81
2023-05-08T03:30:51.692Z,96946.38
2023-05-08T03:31:58.266Z,96949.59
2023-05-08T03:33:03.707Z,96957.34
2023-05-08T03:34:09.666Z,96954.94
2023-05-08T03:35:12.289Z,96952.78
2023-05-08T03:36:17.743Z,96958.69
2023-05-08T03:37:20.309Z,96960.00
2023-05-08T03:38:24.121Z,96954.34
2023-05-08T03:39:27.030Z,96952.94
2023-05-08T03:40:30.809Z,96956.44
2023-05-08T03:41:33.742Z,96961.78
2023-05-08T03:42:38.670Z,96959.13
2023-05-08T03:43:41.957Z,96958.03
2023-05-08T03:44:45.317Z,96961.81
2023-05-08T03:45:48.291Z,96962.63
2023-05-08T03:46:53.965Z,96959.72
2023-05-08T03:47:57.203Z,96959.72
2023-05-08T03:49:04.093Z,96960.25
2023-05-08T03:50:08.861Z,96965.06
2023-05-08T03:51:13.708Z,96969.91
2023-05-08T03:52:17.582Z,96966.41
2023-05-08T03:53:20.976Z,96971.00
2023-05-08T03:54:25.601Z,96964.06
2023-05-08T03:55:29.016Z,96965.13
2023-05-08T03:56:31.501Z,96975.88
2023-05-08T03:57:41.069Z,96969.19
2023-05-08T03:58:48.893Z,96959.25
2023-05-08T04:00:02.021Z,96963.03
2023-05-08T04:01:12.372Z,96961.94
2023-05-08T04:02:26.971Z,96970.53
2023-05-08T04:03:42.962Z,96969.19
2023-05-08T04:04:51.392Z,96969.97
2023-05-08T04:06:01.312Z,96968.34
2023-05-08T04:07:09.616Z,96968.34
2023-05-08T04:08:20.123Z,96961.41
2023-05-08T04:09:29.768Z,96971.03
2023-05-08T04:10:37.851Z,96967.56
2023-05-08T04:11:45.988Z,96963.81
2023-05-08T04:13:04.728Z,96963.28
2023-05-08T04:14:12.543Z,96965.69
2023-05-08T04:15:20.713Z,96966.22
2023-05-08T04:16:28.478Z,96968.84
2023-05-08T04:17:38.901Z,96967.81
2023-05-08T04:18:46.976Z,96966.75
2023-05-08T04:19:57.467Z,96970.22
2023-05-08T04:21:02.130Z,96976.97
2023-05-08T04:22:08.285Z,96977.50
2023-05-08T04:23:17.441Z,96982.09
2023-05-08T04:24:22.826Z,96980.22
2023-05-08T04:25:26.323Z,96986.13
2023-05-08T04:26:31.150Z,96979.69
2023-05-08T04:27:35.588Z,96981.84
2023-05-08T04:28:39.554Z,96987.19
2023-05-08T04:29:42.846Z,96980.22
2023-05-08T04:30:46.643Z,96977.50
2023-05-08T04:31:51.241Z,96981.81
2023-05-08T04:32:54.923Z,96986.09
2023-05-08T04:33:58.643Z,96986.31
2023-05-08T04:35:01.593Z,96985.75
2023-05-08T04:36:05.254Z,96981.69
2023-05-08T04:37:08.246Z,96990.28
2023-05-08T04:38:11.699Z,96986.47
2023-05-08T04:39:16.740Z,96987.50
2023-05-08T04:40:19.095Z,96992.34
2023-05-08T04:41:22.802Z,96993.91
2023-05-08T04:42:26.375Z,96996.03
2023-05-08T04:43:29.727Z,96994.97
2023-05-08T04:44:32.346Z,96997.94
2023-05-08T04:45:36.258Z,97003.31
2023-05-08T04:46:38.680Z,97005.22
2023-05-08T04:47:42.408Z,97000.94
2023-05-08T04:48:44.831Z,97002.63
2023-05-08T04:49:48.552Z,96999.69
2023-05-08T04:50:51.184Z,97003.72
2023-05-08T04:51:54.578Z,96997.03
2023-05-08T04:52:57.416Z,97005.59
2023-05-08T04:54:00.788Z,97001.63
2023-05-08T04:55:04.788Z,97002.72
2023-05-08T04:56:08.458Z,97000.31
2023-05-08T04:57:11.085Z,97000.59
2023-05-08T04:58:14.489Z,97004.09
2023-05-08T04:59:16.845Z,97004.38
2023-05-08T05:00:20.959Z,97000.09
2023-05-08T05:01:24.308Z,97001.72
2023-05-08T05:02:27.956Z,96995.81
2023-05-08T05:03:30.498Z,97005.72
2023-05-08T05:04:33.879Z,97008.16
2023-05-08T05:05:38.693Z,97005.50
2023-05-08T05:06:42.502Z,97005.25
2023-05-08T05:07:45.297Z,97004.97
2023-05-08T05:08:48.812Z,96996.94
2023-05-08T05:09:51.225Z,96999.91
2023-05-08T05:10:56.081Z,96997.50
2023-05-08T05:11:58.473Z,97007.69
2023-05-08T05:13:01.917Z,97005.03
2023-05-08T05:14:04.881Z,97002.34
2023-05-08T05:15:09.496Z,97006.63
2023-05-08T05:16:12.180Z,97003.97
2023-05-08T05:17:15.712Z,97003.13
2023-05-08T05:18:18.636Z,97003.97
2023-05-08T05:19:21.957Z,97016.03
2023-05-08T05:20:24.769Z,97013.59
2023-05-08T05:21:28.257Z,97013.63
2023-05-08T05:22:33.219Z,97012.00
2023-05-08T05:23:37.053Z,97011.97
2023-05-08T05:24:39.954Z,97006.88
2023-05-08T05:25:43.551Z,97010.34
2023-05-08T05:26:47.308Z,97012.75
2023-05-08T05:27:50.591Z,97017.34
2023-05-08T05:28:52.976Z,97010.63
2023-05-08T05:29:56.801Z,97010.63
2023-05-08T05:31:02.103Z,97010.31
2023-05-08T05:32:07.264Z,97008.72
2023-05-08T05:33:10.653Z,97011.94
2023-05-08T05:34:13.413Z,97015.72
2023-05-08T05:35:16.945Z,97013.53
2023-05-08T05:36:19.734Z,97013.03
2023-05-08T05:37:23.252Z,97003.31
2023-05-08T05:38:25.769Z,97003.84
2023-05-08T05:39:29.311Z,97006.50
2023-05-08T05:40:31.848Z,96990.91
2023-05-08T05:41:36.469Z,97002.19
2023-05-08T05:42:40.402Z,97005.97
2023-05-08T05:43:43.874Z,96994.66
2023-05-08T05:44:46.391Z,96998.97
2023-05-08T05:45:49.699Z,96998.97
2023-05-08T05:46:52.500Z,96996.78
2023-05-08T05:47:56.148Z,96997.59
2023-05-08T05:48:59.360Z,96996.78
2023-05-08T05:50:02.857Z,96997.03
2023-05-08T05:51:05.323Z,96997.28
2023-05-08T05:52:08.717Z,96995.94
2023-05-08T05:53:11.777Z,96994.03
2023-05-08T05:54:16.073Z,96995.38
2023-05-08T05:55:18.484Z,97001.00
2023-05-08T05:56:23.336Z,96997.25
2023-05-08T05:57:25.727Z,96993.44
2023-05-08T05:58:30.471Z,96997.75
2023-05-08T05:59:32.922Z,97002.34
2023-05-08T06:00:36.219Z,96996.13
2023-05-08T06:01:39.458Z,96989.94
2023-05-08T06:02:43.987Z,96993.69
2023-05-08T06:03:47.061Z,96989.63
2023-05-08T06:04:52.317Z,96988.78
2023-05-08T06:05:55.855Z,96996.84
2023-05-08T06:07:00.540Z,96994.94
2023-05-08T06:08:04.014Z,96996.00
2023-05-08T06:09:07.548Z,96997.63
2023-05-08T06:10:11.802Z,96993.28
2023-05-08T06:11:14.181Z,97005.09
2023-05-08T06:12:18.281Z,96997.00
2023-05-08T06:13:21.093Z,96996.69
2023-05-08T06:14:26.229Z,97004.16
2023-05-08T06:15:28.663Z,97008.72
2023-05-08T06:16:32.391Z,97008.66
2023-05-08T06:17:34.803Z,97010.81
2023-05-08T06:18:38.451Z,97006.47
2023-05-08T06:19:41.204Z,97007.53
2023-05-08T06:20:44.626Z,97004.81
2023-05-08T06:21:47.044Z,97011.03
2023-05-08T06:22:50.514Z,96998.56
2023-05-08T06:23:53.273Z,97017.13
2023-05-08T06:24:57.364Z,97012.22
2023-05-08T06:25:59.941Z,97008.94
2023-05-08T06:27:03.228Z,97005.03
2023-05-08T06:28:08.200Z,97018.34
2023-05-08T06:29:11.689Z,97009.47
2023-05-08T06:30:16.118Z,97010.31
2023-05-08T06:31:19.591Z,97012.19
2023-05-08T06:32:22.507Z,97010.22
2023-05-08T06:33:27.123Z,97007.00
2023-05-08T06:34:29.703Z,97010.81
2023-05-08T06:35:33.175Z,97006.25
2023-05-08T06:36:36.511Z,97007.94
2023-05-08T06:37:39.857Z,97014.47
2023-05-08T06:38:42.470Z,97001.59
2023-05-08T06:39:45.828Z,97003.81
2023-05-08T06:40:50.582Z,96995.03
2023-05-08T06:41:53.976Z,97007.84
2023-05-08T06:42:56.377Z,97010.50
2023-05-08T06:43:59.921Z,97009.78
2023-05-08T06:45:02.544Z,97005.91
2023-05-08T06:46:07.296Z,97011.19
2023-05-08T06:47:09.777Z,97013.31
2023-05-08T06:48:13.297Z,97007.28
2023-05-08T06:49:16.036Z,97008.28
2023-05-08T06:50:19.433Z,97013.09
2023-05-08T06:51:23.398Z,97010.28
2023-05-08T06:52:26.945Z,97012.91
2023-05-08T06:53:29.402Z,97009.63
2023-05-08T06:54:32.854Z,97007.41
2023-05-08T06:55:36.562Z,97006.31
2023-05-08T06:56:38.962Z,97003.78
2023-05-08T06:57:42.822Z,97006.38
2023-05-08T06:58:53.716Z,97009.06
2023-05-08T07:00:09.876Z,97000.00
2023-05-08T07:01:16.024Z,97007.06
2023-05-08T07:02:20.423Z,97007.34
2023-05-08T07:03:22.926Z,97006.72
2023-05-08T07:04:27.013Z,96994.88
2023-05-08T07:05:29.451Z,97003.78
2023-05-08T07:06:33.085Z,97009.41
2023-05-08T07:07:35.699Z,97001.69
2023-05-08T07:08:39.346Z,97006.91
2023-05-08T07:09:42.224Z,97002.31
2023-05-08T07:10:45.739Z,97006.31
2023-05-08T07:11:48.421Z,97004.47
2023-05-08T07:12:52.502Z,97001.06
2023-05-08T07:13:57.975Z,97009.59
2023-05-08T07:15:07.846Z,97002.72
2023-05-08T07:16:19.267Z,97008.06
2023-05-08T07:17:22.018Z,97009.88
2023-05-08T07:18:28.324Z,97011.41
2023-05-08T07:19:30.829Z,97005.81
2023-05-08T07:20:34.122Z,97005.81
2023-05-08T07:21:38.861Z,97006.41
2023-05-08T07:22:41.608Z,97008.03
2023-05-08T07:23:44.963Z,97009.31
2023-05-08T07:24:47.721Z,97005.00
2023-05-08T07:25:51.079Z,97006.31
2023-05-08T07:26:53.710Z,97006.78
2023-05-08T07:27:58.708Z,97009.41
2023-05-08T07:29:03.110Z,97003.84
2023-05-08T07:30:07.425Z,97003.44
2023-05-08T07:31:09.909Z,97005.75
2023-05-08T07:32:15.475Z,96994.78
2023-05-08T07:33:18.571Z,97002.31
2023-05-08T07:34:22.048Z,97004.59
2023-05-08T07:35:25.515Z,97001.28
2023-05-08T07:36:28.422Z,96996.09
2023-05-08T07:37:31.762Z,96994.63
2023-05-08T07:38:35.122Z,97002.22
2023-05-08T07:39:37.948Z,96997.88
2023-05-08T07:40:41.301Z,97006.25
2023-05-08T07:41:47.152Z,97001.22
2023-05-08T07:42:51.024Z,96993.09
2023-05-08T07:43:54.554Z,96989.78
2023-05-08T07:44:57.040Z,96994.88
2023-05-08T07:46:00.688Z,96996.00
2023-05-08T07:47:03.838Z,96995.94
2023-05-08T07:48:09.011Z,96997.03
2023-05-08T07:49:11.460Z,96997.03
2023-05-08T07:50:15.236Z,96993.69
2023-05-08T07:51:17.642Z,96995.16
2023-05-08T07:52:21.046Z,96998.03
2023-05-08T07:53:23.412Z,96992.78
2023-05-08T07:54:27.689Z,96999.03
2023-05-08T07:55:31.992Z,96994.72
2023-05-08T07:56:34.432Z,96998.41
2023-05-08T07:57:39.109Z,96994.72
2023-05-08T07:58:43.092Z,96991.72
2023-05-08T07:59:46.860Z,96998.91
2023-05-08T08:00:50.417Z,96992.34
2023-05-08T08:01:52.856Z,96993.78
2023-05-08T08:02:58.620Z,96997.28
2023-05-08T08:04:03.562Z,97002.56
2023-05-08T08:05:07.113Z,96990.53
2023-05-08T08:06:10.541Z,96998.53
2023-05-08T08:07:13.655Z,96988.13
2023-05-08T08:08:17.019Z,96998.69
2023-05-08T08:09:19.381Z,96994.84
2023-05-08T08:10:22.918Z,96998.38
2023-05-08T08:11:26.862Z,96996.75
2023-05-08T08:12:29.396Z,96990.34
2023-05-08T08:13:33.019Z,96994.03
2023-05-08T08:14:35.619Z,96998.72
2023-05-08T08:15:38.958Z,96994.50
2023-05-08T08:16:42.839Z,96993.69
2023-05-08T08:17:45.362Z,96998.16
2023-05-08T08:18:48.920Z,96995.41
2023-05-08T08:19:53.523Z,96997.78
2023-05-08T08:20:56.962Z,97002.22
2023-05-08T08:21:59.411Z,97001.47
2023-05-08T08:23:02.875Z,97002.94
2023-05-08T08:24:05.889Z,96998.78
2023-05-08T08:25:10.221Z,97005.25
2023-05-08T08:26:13.665Z,97001.00
2023-05-08T08:27:16.179Z,97004.97
2023-05-08T08:28:19.517Z,97006.09
2023-05-08T08:29:21.990Z,97005.66
2023-05-08T08:30:25.555Z,96995.41
2023-05-08T08:31:28.037Z,97003.84
2023-05-08T08:32:31.600Z,97000.78
2023-05-08T08:33:34.105Z,97001.34
2023-05-08T08:34:37.579Z,97005.47
2023-05-08T08:35:41.350Z,96999.59
2023-05-08T08:36:44.714Z,96993.78
2023-05-08T08:37:48.047Z,97006.97
2023-05-08T08:38:51.462Z,97001.59
2023-05-08T08:39:54.538Z,96995.75
2023-05-08T08:40:58.564Z,97000.19
2023-05-08T08:42:01.537Z,96996.09
2023-05-08T08:43:04.863Z,97000.75
2023-05-08T08:44:07.539Z,96999.28
2023-05-08T08:45:12.331Z,97001.78
2023-05-08T08:46:16.029Z,96998.97
2023-05-08T08:47:24.551Z,96997.75
2023-05-08T08:48:28.968Z,97001.19
2023-05-08T08:49:35.731Z,96999.84
2023-05-08T08:50:48.728Z,97000.06
2023-05-08T08:51:57.542Z,97000.06
2023-05-08T08:53:07.332Z,96997.13
2023-05-08T08:54:12.930Z,96994.63
2023-05-08T08:55:19.307Z,96992.00
2023-05-08T08:56:23.871Z,96988.78
2023-05-08T08:57:29.868Z,96987.16
2023-05-08T08:58:39.215Z,96991.31
2023-05-08T08:59:43.398Z,96991.03
2023-05-08T09:00:48.786Z,96993.28
2023-05-08T09:01:56.720Z,96992.06
2023-05-08T09:03:01.481Z,96989.28
2023-05-08T09:04:04.321Z,96994.25
2023-05-08T09:05:09.148Z,96987.56
2023-05-08T09:06:14.575Z,96991.72
2023-05-08T09:07:19.150Z,96990.88
2023-05-08T09:08:22.924Z,96990.50
2023-05-08T09:09:26.092Z,96993.63
2023-05-08T09:10:29.729Z,96992.44
2023-05-08T09:11:32.308Z,96991.56
2023-05-08T09:12:35.753Z,96990.91
2023-05-08T09:13:39.962Z,96993.03
2023-05-08T09:14:42.573Z,96990.81
2023-05-08T09:15:45.993Z,96988.47
2023-05-08T09:16:48.583Z,96989.66
2023-05-08T09:17:52.067Z,96991.69
2023-05-08T09:18:54.637Z,96985.13
2023-05-08T09:19:58.221Z,96987.88
2023-05-08T09:21:02.758Z,96991.03
2023-05-08T09:22:09.903Z,96990.47
2023-05-08T09:23:14.796Z,96995.06
2023-05-08T09:24:18.239Z,96985.97
2023-05-08T09:25:21.900Z,96990.16
2023-05-08T09:26:28.828Z,96991.31
2023-05-08T09:27:33.054Z,96992.09
2023-05-08T09:28:36.656Z,96994.16
2023-05-08T09:29:39.188Z,96998.22
2023-05-08T09:30:51.353Z,96999.59
2023-05-08T09:31:54.975Z,97007.31
2023-05-08T09:33:03.778Z,97008.66
2023-05-08T09:34:07.220Z,97010.16
2023-05-08T09:35:12.466Z,97003.75
2023-05-08T09:36:28.727Z,97011.94
2023-05-08T09:37:34.042Z,97004.75
2023-05-08T09:38:37.938Z,97010.06
2023-05-08T09:39:43.329Z,97006.09
2023-05-08T09:40:45.895Z,97010.63
2023-05-08T09:41:59.117Z,97005.13
2023-05-08T09:43:13.973Z,97008.25
2023-05-08T09:44:17.841Z,97009.72
2023-05-08T09:45:29.393Z,97008.16
2023-05-08T09:46:34.222Z,97016.34
2023-05-08T09:47:39.689Z,97013.31
2023-05-08T09:48:43.121Z,97018.44
2023-05-08T09:49:59.772Z,97017.16
2023-05-08T09:51:07.757Z,97018.44
2023-05-08T09:52:17.078Z,97017.78
2023-05-08T09:53:31.942Z,97017.91
2023-05-08T09:54:35.620Z,97017.16
2023-05-08T09:55:49.071Z,97015.03
2023-05-08T09:56:51.485Z,97013.38
2023-05-08T09:57:56.696Z,97014.88
2023-05-08T09:58:59.238Z,97022.91
2023-05-08T10:00:06.059Z,97009.44
2023-05-08T10:01:30.882Z,97016.56
2023-05-08T10:02:35.008Z,97020.31
2023-05-08T10:03:47.815Z,97016.44
2023-05-08T10:04:52.138Z,97009.69
2023-05-08T10:05:54.571Z,97010.31
2023-05-08T10:06:59.608Z,97013.25
2023-05-08T10:08:20.399Z,97017.22
2023-05-08T10:09:24.196Z,97012.38
2023-05-08T10:10:29.223Z,97013.19
2023-05-08T10:11:32.040Z,97007.88
2023-05-08T10:12:38.057Z,97011.56
2023-05-08T10:13:40.482Z,97006.69
2023-05-08T10:14:46.552Z,97010.50
2023-05-08T10:15:55.956Z,97008.72
2023-05-08T10:17:02.165Z,97010.44
2023-05-08T10:18:06.412Z,97000.34
2023-05-08T10:19:16.152Z,97011.25
2023-05-08T10:20:21.827Z,97012.88
2023-05-08T10:21:29.911Z,97014.47
2023-05-08T10:22:37.510Z,97012.19
2023-05-08T10:23:42.766Z,97010.59
2023-05-08T10:24:51.279Z,97005.50
2023-05-08T10:26:01.219Z,97005.91
2023-05-08T10:27:11.250Z,97005.16
2023-05-08T10:28:18.688Z,97004.53
2023-05-08T10:29:29.675Z,97003.28
2023-05-08T10:30:35.584Z,96997.06
2023-05-08T10:31:41.623Z,96999.94
2023-05-08T10:32:46.619Z,96988.09
2023-05-08T10:33:51.484Z,96989.88
2023-05-08T10:34:58.336Z,96990.22
2023-05-08T10:36:01.589Z,96988.59
2023-05-08T10:37:05.448Z,96995.31
2023-05-08T10:38:09.466Z,96991.00
2023-05-08T10:39:14.663Z,96991.81
2023-05-08T10:40:21.410Z,96991.97
2023-05-08T10:41:25.280Z,96987.97
2023-05-08T10:42:30.050Z,96985.53
2023-05-08T10:43:34.799Z,96987.38
2023-05-08T10:44:38.677Z,96985.25
2023-05-08T10:45:42.744Z,96993.94
2023-05-08T10:46:52.296Z,96982.69
2023-05-08T10:48:05.915Z,96981.09
2023-05-08T10:49:17.158Z,96978.88
2023-05-08T10:50:34.598Z,96979.25
2023-05-08T10:51:44.645Z,96971.75
2023-05-08T10:52:55.090Z,96974.31
2023-05-08T10:54:06.735Z,96974.81
2023-05-08T10:55:26.287Z,96975.78
2023-05-08T10:56:29.226Z,96975.63
2023-05-08T10:57:33.137Z,96962.44
2023-05-08T10:58:39.910Z,96967.22
2023-05-08T10:59:46.010Z,96972.69
2023-05-08T11:01:14.853Z,96968.88
2023-05-08T11:02:28.735Z,96968.50
2023-05-08T11:03:33.281Z,96966.16
2023-05-08T11:04:38.370Z,96958.91
2023-05-08T11:05:46.920Z,96967.00
2023-05-08T11:06:53.158Z,96966.66
2023-05-08T11:07:56.883Z,96962.22
2023-05-08T11:09:01.025Z,96959.81
2023-05-08T11:10:15.720Z,96964.59
2023-05-08T11:11:26.914Z,96965.38
2023-05-08T11:12:33.924Z,96961.75
2023-05-08T11:13:38.354Z,96959.53
2023-05-08T11:14:44.241Z,96965.00
2023-05-08T11:15:51.691Z,96964.84
2023-05-08T11:17:11.878Z,96958.31
2023-05-08T11:18:17.741Z,96958.47
2023-05-08T11:19:22.617Z,96962.53
2023-05-08T11:20:40.482Z,96956.69
2023-05-08T11:22:12.854Z,96954.59
2023-05-08T11:23:27.164Z,96953.63
2023-05-08T11:24:36.493Z,96956.16
2023-05-08T11:25:46.247Z,96952.13
2023-05-08T11:26:50.547Z,96950.28
2023-05-08T11:28:12.622Z,96954.19
2023-05-08T11:29:17.922Z,96951.25
2023-05-08T11:30:23.726Z,96951.97
2023-05-08T11:31:53.662Z,96956.47
2023-05-08T11:33:13.646Z,96947.28
2023-05-08T11:34:47.665Z,96949.41
2023-05-08T11:35:56.890Z,96946.72
2023-05-08T11:37:03.055Z,96954.31
2023-05-08T11:38:18.246Z,96953.16
2023-05-08T11:39:21.643Z,96953.31
2023-05-08T11:40:47.422Z,96955.88
2023-05-08T11:41:52.168Z,96949.25
2023-05-08T11:42:56.892Z,96954.31
2023-05-08T11:44:15.334Z,96946.88
2023-05-08T11:45:20.306Z,96944.75
2023-05-08T11:46:23.755Z,96945.69
2023-05-08T11:47:37.844Z,96947.25
2023-05-08T11:48:40.870Z,96952.53
2023-05-08T11:49:45.389Z,96944.47
2023-05-08T11:50:53.563Z,96944.91
2023-05-08T11:52:02.997Z,96947.66
2023-05-08T11:53:06.358Z,96940.94
2023-05-08T11:54:10.825Z,96939.00
2023-05-08T11:55:15.919Z,96938.53
2023-05-08T11:56:18.361Z,96939.69
2023-05-08T11:57:24.059Z,96950.72
2023-05-08T11:58:26.908Z,96941.75
2023-05-08T11:59:30.411Z,96939.81
2023-05-08T12:00:33.016Z,96942.19
2023-05-08T12:01:36.926Z,96947.19
2023-05-08T12:02:42.903Z,96946.25
2023-05-08T12:03:47.020Z,96944.06
2023-05-08T12:04:50.581Z,96940.75
2023-05-08T12:05:57.214Z,96943.41
2023-05-08T12:07:01.164Z,96943.19
2023-05-08T12:08:06.387Z,96948.34
2023-05-08T12:09:14.300Z,96944.06
2023-05-08T12:10:17.694Z,96947.47
2023-05-08T12:11:24.860Z,96941.53
2023-05-08T12:12:39.133Z,96935.25
2023-05-08T12:13:41.541Z,96942.78
2023-05-08T12:14:45.067Z,96937.81
2023-05-08T12:15:48.586Z,96925.75
2023-05-08T12:16:52.546Z,96932.81
2023-05-08T12:18:02.128Z,96932.50
2023-05-08T12:19:06.950Z,96930.22
2023-05-08T12:20:14.312Z,96928.75
2023-05-08T12:21:19.045Z,96924.22
2023-05-08T12:22:22.434Z,96925.16
2023-05-08T12:23:28.856Z,96924.53
2023-05-08T12:24:31.365Z,96927.72
2023-05-08T12:25:34.696Z,96916.78
2023-05-08T12:26:37.650Z,96921.94
2023-05-08T12:27:42.424Z,96924.66
2023-05-08T12:28:46.350Z,96929.31
2023-05-08T12:29:49.679Z,96921.44
2023-05-08T12:30:52.539Z,96920.78
2023-05-08T12:31:56.263Z,96927.84
2023-05-08T12:32:59.173Z,96920.91
2023-05-08T12:34:04.554Z,96927.66
2023-05-08T12:35:07.803Z,96931.16
2023-05-08T12:36:11.950Z,96927.53
2023-05-08T12:37:24.289Z,96929.19
2023-05-08T12:38:28.390Z,96921.03
2023-05-08T12:39:36.377Z,96921.91
2023-05-08T12:40:43.692Z,96915.84
2023-05-08T12:41:48.845Z,96919.56
2023-05-08T12:42:53.911Z,96919.13
2023-05-08T12:43:57.368Z,96919.13
2023-05-08T12:45:00.180Z,96911.72
2023-05-08T12:46:04.827Z,96916.84
2023-05-08T12:47:07.332Z,96918.91
2023-05-08T12:48:12.717Z,96915.50
2023-05-08T12:49:22.974Z,96914.06
2023-05-08T12:50:26.383Z,96910.19
2023-05-08T12:51:32.594Z,96905.66
2023-05-08T12:52:37.360Z,96908.22
2023-05-08T12:53:41.317Z,96915.38
2023-05-08T12:54:48.585Z,96907.19
2023-05-08T12:55:54.983Z,96912.19
2023-05-08T12:56:57.677Z,96915.09
2023-05-08T12:58:04.475Z,96913.94
2023-05-08T12:59:06.962Z,96912.53
2023-05-08T13:00:11.774Z,96906.31
2023-05-08T13:01:24.353Z,96910.38
2023-05-08T13:02:27.394Z,96913.31
2023-05-08T13:03:33.226Z,96916.84
2023-05-08T13:04:38.124Z,96916.50
2023-05-08T13:05:43.825Z,96918.56
2023-05-08T13:06:56.015Z,96919.50
2023-05-08T13:08:01.730Z,96928.28
2023-05-08T13:09:05.306Z,96919.56
2023-05-08T13:10:08.980Z,96922.78
2023-05-08T13:11:12.319Z,96920.28
2023-05-08T13:12:16.771Z,96922.50
2023-05-08T13:13:23.223Z,96927.41
2023-05-08T13:14:27.213Z,96922.91
2023-05-08T13:15:29.740Z,96925.47
2023-05-08T13:16:43.506Z,96919.66